PWSweather.com
Personal Weather Stations
Station Observations
SHAHALMS1
Eftra, Falkenberg, HA

EftraFalkenberg, HA

Lat: 56.85, Lon: 12.65

Elevation: 140

Station Type:

http://hem.passagen.se/risarp101

High Low Average
Temperature 64.6°F18.1°C 55.0°F12.8°C 59.3°F15.2°C
Dew Point 54.8°F12.7°C 45.9°F7.7°C 51.1°F10.6°C
Winds 14.8 mph 23.8 kmh 3.2 mph 5.1 kmh 7.0 mph WSW11.3 kmh WSW
Wind Gusts 28.3 mph45.5 kmh 3.9 mph6.3 kmh 14.0 mph22.5 kmh
Humidity 84% 69% 74%
Pressure 29.95 in1014.2 mb 29.83 in1010.2 mb -
Precipitation 0.09 in2.3 mm - -
Hour Temp Dew Point Humidity Winds Wind Gusts Pressure Precip Precip Rate Daily Precip Total
12:00 AM 56.5°F13.6°C 46.8°F8.2°C 70% 5.3 mph W8.5 kmh W 10.4 mph16.7 kmh 29.95 in1014.2 mb 0.00 in0.0 mm 0.00 in0.0 mm 0.00 in0.0 mm
12:15 AM 56.5°F13.6°C 46.8°F8.2°C 70% 6.4 mph WSW10.3 kmh WSW 15.4 mph24.8 kmh 29.92 in1013.2 mb 0.00 in0.0 mm 0.00 in0.0 mm 0.00 in0.0 mm
12:30 AM 56.5°F13.6°C 46.8°F8.2°C 70% 7.0 mph W11.3 kmh W 15.4 mph24.8 kmh 29.92 in1013.2 mb 0.00 in0.0 mm 0.00 in0.0 mm 0.00 in0.0 mm
12:45 AM 56.5°F13.6°C 47.2°F8.4°C 71% 5.9 mph W9.5 kmh W 16.1 mph25.9 kmh 29.92 in1013.2 mb 0.00 in0.0 mm 0.00 in0.0 mm 0.00 in0.0 mm
01:00 AM 56.1°F13.4°C 46.5°F8.1°C 70% 6.5 mph W10.5 kmh W 12.5 mph20.1 kmh 29.92 in1013.2 mb 0.00 in0.0 mm 0.00 in0.0 mm 0.00 in0.0 mm
01:15 AM 55.8°F13.2°C 46.1°F7.8°C 70% 5.3 mph WSW8.5 kmh WSW 12.2 mph19.6 kmh 29.92 in1013.2 mb 0.00 in0.0 mm 0.00 in0.0 mm 0.00 in0.0 mm
01:30 AM 55.6°F13.1°C 45.9°F7.7°C 70% 4.4 mph W7.1 kmh W 12.9 mph20.8 kmh 29.92 in1013.2 mb 0.00 in0.0 mm 0.00 in0.0 mm 0.00 in0.0 mm
01:45 AM 55.4°F13.0°C 46.2°F7.9°C 71% 5.0 mph WSW8.0 kmh WSW 8.9 mph14.3 kmh 29.92 in1013.2 mb 0.00 in0.0 mm 0.00 in0.0 mm 0.00 in0.0 mm
02:00 AM 55.0°F12.8°C 46.2°F7.9°C 72% 5.1 mph WSW8.2 kmh WSW 16.5 mph26.6 kmh 29.89 in1012.2 mb 0.00 in0.0 mm 0.00 in0.0 mm 0.00 in0.0 mm
02:15 AM 55.2°F12.9°C 46.3°F7.9°C 72% 5.5 mph WSW8.9 kmh WSW 16.5 mph26.6 kmh 29.89 in1012.2 mb 0.00 in0.0 mm 0.00 in0.0 mm 0.00 in0.0 mm
02:30 AM 55.2°F12.9°C 46.0°F7.8°C 71% 5.6 mph W9.0 kmh W 12.2 mph19.6 kmh 29.89 in1012.2 mb 0.00 in0.0 mm 0.00 in0.0 mm 0.00 in0.0 mm
02:45 AM 55.2°F12.9°C 46.3°F7.9°C 72% 4.6 mph WNW7.4 kmh WNW 9.3 mph15.0 kmh 29.92 in1013.2 mb 0.00 in0.0 mm 0.00 in0.0 mm 0.00 in0.0 mm
03:00 AM 55.4°F13.0°C 46.9°F8.3°C 73% 5.1 mph WSW8.2 kmh WSW 11.5 mph18.5 kmh 29.92 in1013.2 mb 0.00 in0.0 mm 0.00 in0.0 mm 0.00 in0.0 mm
03:15 AM 55.4°F13.0°C 46.9°F8.3°C 73% 5.5 mph W8.9 kmh W 11.5 mph18.5 kmh 29.89 in1012.2 mb 0.00 in0.0 mm 0.00 in0.0 mm 0.00 in0.0 mm
03:30 AM 55.6°F13.1°C 47.1°F8.4°C 73% 5.2 mph W8.4 kmh W 11.5 mph18.5 kmh 29.92 in1013.2 mb 0.00 in0.0 mm 0.00 in0.0 mm 0.00 in0.0 mm
03:45 AM 55.6°F13.1°C 47.1°F8.4°C 73% 4.7 mph W7.6 kmh W 12.2 mph19.6 kmh 29.92 in1013.2 mb 0.00 in0.0 mm 0.00 in0.0 mm 0.00 in0.0 mm
04:00 AM 55.8°F13.2°C 47.6°F8.7°C 74% 5.4 mph WSW8.7 kmh WSW 13.6 mph21.9 kmh 29.92 in1013.2 mb 0.00 in0.0 mm 0.00 in0.0 mm 0.00 in0.0 mm
04:15 AM 55.9°F13.3°C 48.1°F8.9°C 75% 6.3 mph WSW10.1 kmh WSW 12.2 mph19.6 kmh 29.92 in1013.2 mb 0.00 in0.0 mm 0.00 in0.0 mm 0.00 in0.0 mm
04:30 AM 56.1°F13.4°C 48.3°F9.1°C 75% 5.5 mph W8.9 kmh W 13.6 mph21.9 kmh 29.92 in1013.2 mb 0.00 in0.0 mm 0.00 in0.0 mm 0.00 in0.0 mm
04:45 AM 56.1°F13.4°C 48.3°F9.1°C 75% 4.6 mph W7.4 kmh W 9.3 mph15.0 kmh 29.92 in1013.2 mb 0.00 in0.0 mm 0.00 in0.0 mm 0.00 in0.0 mm
05:00 AM 55.9°F13.3°C 48.5°F9.2°C 76% 5.6 mph W9.0 kmh W 12.5 mph20.1 kmh 29.92 in1013.2 mb 0.00 in0.0 mm 0.00 in0.0 mm 0.00 in0.0 mm
05:15 AM 56.1°F13.4°C 48.7°F9.3°C 76% 5.5 mph W8.9 kmh W 12.9 mph20.8 kmh 29.89 in1012.2 mb 0.00 in0.0 mm 0.00 in0.0 mm 0.00 in0.0 mm
05:30 AM 56.3°F13.5°C 48.8°F9.3°C 76% 5.5 mph W8.9 kmh W 10.4 mph16.7 kmh 29.92 in1013.2 mb 0.00 in0.0 mm 0.00 in0.0 mm 0.00 in0.0 mm
05:45 AM 56.5°F13.6°C 49.0°F9.4°C 76% 6.0 mph W9.7 kmh W 14.7 mph23.7 kmh 29.92 in1013.2 mb 0.00 in0.0 mm 0.00 in0.0 mm 0.00 in0.0 mm
06:00 AM 56.5°F13.6°C 49.0°F9.4°C 76% 5.5 mph W8.9 kmh W 11.8 mph19.0 kmh 29.89 in1012.2 mb 0.00 in0.0 mm 0.00 in0.0 mm 0.00 in0.0 mm
06:15 AM 56.8°F13.8°C 49.4°F9.7°C 76% 6.9 mph W11.1 kmh W 16.1 mph25.9 kmh 29.92 in1013.2 mb 0.00 in0.0 mm 0.00 in0.0 mm 0.00 in0.0 mm
06:30 AM 57.2°F14.0°C 50.1°F10.1°C 77% 5.4 mph W8.7 kmh W 10.0 mph16.1 kmh 29.89 in1012.2 mb 0.00 in0.0 mm 0.00 in0.0 mm 0.00 in0.0 mm
06:45 AM 57.6°F14.2°C 50.4°F10.2°C 77% 5.5 mph W8.9 kmh W 12.5 mph20.1 kmh 29.92 in1013.2 mb 0.00 in0.0 mm 0.00 in0.0 mm 0.00 in0.0 mm
07:00 AM 57.9°F14.4°C 50.8°F10.4°C 77% 6.6 mph W10.6 kmh W 19.7 mph31.7 kmh 29.89 in1012.2 mb 0.00 in0.0 mm 0.00 in0.0 mm 0.00 in0.0 mm
07:15 AM 58.3°F14.6°C 51.1°F10.6°C 77% 7.5 mph W12.1 kmh W 17.2 mph27.7 kmh 29.89 in1012.2 mb 0.00 in0.0 mm 0.00 in0.0 mm 0.00 in0.0 mm
07:30 AM 58.3°F14.6°C 50.7°F10.4°C 76% 6.9 mph W11.1 kmh W 13.6 mph21.9 kmh 29.92 in1013.2 mb 0.00 in0.0 mm 0.00 in0.0 mm 0.00 in0.0 mm
07:45 AM 58.5°F14.7°C 50.9°F10.5°C 76% 6.6 mph W10.6 kmh W 15.4 mph24.8 kmh 29.92 in1013.2 mb 0.00 in0.0 mm 0.00 in0.0 mm 0.00 in0.0 mm
08:00 AM 58.6°F14.8°C 50.7°F10.4°C 75% 5.2 mph W8.4 kmh W 10.0 mph16.1 kmh 29.92 in1013.2 mb 0.00 in0.0 mm 0.00 in0.0 mm 0.00 in0.0 mm
08:15 AM 59.5°F15.3°C 52.0°F11.1°C 76% 5.1 mph W8.2 kmh W 12.2 mph19.6 kmh 29.95 in1014.2 mb 0.00 in0.0 mm 0.00 in0.0 mm 0.00 in0.0 mm
08:30 AM 60.4°F15.8°C 52.5°F11.4°C 75% 6.2 mph W10.0 kmh W 15.7 mph25.3 kmh 29.92 in1013.2 mb 0.00 in0.0 mm 0.00 in0.0 mm 0.00 in0.0 mm
08:45 AM 59.7°F15.4°C 51.0°F10.6°C 73% 5.1 mph W8.2 kmh W 14.7 mph23.7 kmh 29.89 in1012.2 mb 0.00 in0.0 mm 0.00 in0.0 mm 0.00 in0.0 mm
09:00 AM 60.4°F15.8°C 52.1°F11.2°C 74% 5.2 mph W8.4 kmh W 16.1 mph25.9 kmh 29.89 in1012.2 mb 0.00 in0.0 mm 0.00 in0.0 mm 0.00 in0.0 mm
09:15 AM 61.3°F16.3°C 53.3°F11.8°C 75% 7.0 mph W11.3 kmh W 13.6 mph21.9 kmh 29.89 in1012.2 mb 0.00 in0.0 mm 0.00 in0.0 mm 0.00 in0.0 mm
09:30 AM 61.9°F16.6°C 53.9°F12.2°C 75% 5.5 mph W8.9 kmh W 15.4 mph24.8 kmh 29.92 in1013.2 mb 0.00 in0.0 mm 0.00 in0.0 mm 0.00 in0.0 mm
09:45 AM 62.1°F16.7°C 53.7°F12.1°C 74% 7.0 mph W11.3 kmh W 15.0 mph24.1 kmh 29.92 in1013.2 mb 0.00 in0.0 mm 0.00 in0.0 mm 0.00 in0.0 mm
10:00 AM 61.2°F16.2°C 52.1°F11.2°C 72% 5.7 mph W9.2 kmh W 16.8 mph27.0 kmh 29.92 in1013.2 mb 0.00 in0.0 mm 0.00 in0.0 mm 0.00 in0.0 mm
10:15 AM 61.5°F16.4°C 52.8°F11.6°C 73% 6.1 mph W9.8 kmh W 14.3 mph23.0 kmh 29.95 in1014.2 mb 0.00 in0.0 mm 0.00 in0.0 mm 0.00 in0.0 mm
10:30 AM 62.4°F16.9°C 53.3°F11.8°C 72% 6.9 mph W11.1 kmh W 15.0 mph24.1 kmh 29.92 in1013.2 mb 0.00 in0.0 mm 0.00 in0.0 mm 0.00 in0.0 mm
10:45 AM 62.8°F17.1°C 53.2°F11.8°C 71% 7.2 mph WSW11.6 kmh WSW 20.4 mph32.8 kmh 29.95 in1014.2 mb 0.00 in0.0 mm 0.00 in0.0 mm 0.00 in0.0 mm
11:00 AM 63.0°F17.2°C 53.4°F11.9°C 71% 6.6 mph W10.6 kmh W 15.7 mph25.3 kmh 29.92 in1013.2 mb 0.00 in0.0 mm 0.00 in0.0 mm 0.00 in0.0 mm
11:15 AM 63.1°F17.3°C 53.6°F12.0°C 71% 6.4 mph W10.3 kmh W 16.5 mph26.6 kmh 29.95 in1014.2 mb 0.00 in0.0 mm 0.00 in0.0 mm 0.00 in0.0 mm
11:30 AM 63.5°F17.5°C 53.5°F11.9°C 70% 7.1 mph W11.4 kmh W 15.7 mph25.3 kmh 29.92 in1013.2 mb 0.00 in0.0 mm 0.00 in0.0 mm 0.00 in0.0 mm
11:45 AM 63.7°F17.6°C 53.3°F11.8°C 69% 7.8 mph WSW12.6 kmh WSW 21.1 mph34.0 kmh 29.92 in1013.2 mb 0.00 in0.0 mm 0.00 in0.0 mm 0.00 in0.0 mm
12:00 PM 64.6°F18.1°C 54.6°F12.6°C 70% 8.2 mph WSW13.2 kmh WSW 17.2 mph27.7 kmh 29.95 in1014.2 mb 0.00 in0.0 mm 0.00 in0.0 mm 0.00 in0.0 mm
01:22 PM 64.4°F18.0°C 54.0°F12.2°C 69% 7.9 mph W12.7 kmh W 9.7 mph15.6 kmh 29.92 in1013.2 mb 0.00 in0.0 mm 0.00 in0.0 mm 0.00 in0.0 mm
01:32 PM 63.7°F17.6°C 53.3°F11.8°C 69% 10.2 mph S16.4 kmh S 12.5 mph20.1 kmh 29.92 in1013.2 mb 0.00 in0.0 mm 0.00 in0.0 mm 0.00 in0.0 mm
01:42 PM 63.3°F17.4°C 53.0°F11.7°C 69% 7.9 mph W12.7 kmh W 9.7 mph15.6 kmh 29.92 in1013.2 mb 0.00 in0.0 mm 0.00 in0.0 mm 0.00 in0.0 mm
01:52 PM 63.3°F17.4°C 53.4°F11.9°C 70% 7.1 mph NW11.4 kmh NW 9.7 mph15.6 kmh 29.92 in1013.2 mb 0.00 in0.0 mm 0.00 in0.0 mm 0.00 in0.0 mm
02:02 PM 63.9°F17.7°C 53.9°F12.2°C 70% 7.3 mph W11.7 kmh W 8.9 mph14.3 kmh 29.92 in1013.2 mb 0.00 in0.0 mm 0.00 in0.0 mm 0.00 in0.0 mm
02:12 PM 64.4°F18.0°C 54.8°F12.7°C 71% 5.2 mph W8.4 kmh W 6.4 mph10.3 kmh 29.92 in1013.2 mb 0.00 in0.0 mm 0.00 in0.0 mm 0.00 in0.0 mm
02:22 PM 64.6°F18.1°C 54.2°F12.3°C 69% 14.8 mph W23.8 kmh W 18.3 mph29.5 kmh 29.92 in1013.2 mb 0.00 in0.0 mm 0.00 in0.0 mm 0.00 in0.0 mm
02:32 PM 64.6°F18.1°C 54.2°F12.3°C 69% 5.2 mph W8.4 kmh W 6.4 mph10.3 kmh 29.92 in1013.2 mb 0.00 in0.0 mm 0.00 in0.0 mm 0.00 in0.0 mm
02:42 PM 64.6°F18.1°C 54.2°F12.3°C 69% 5.5 mph W8.9 kmh W 6.8 mph10.9 kmh 29.92 in1013.2 mb 0.00 in0.0 mm 0.00 in0.0 mm 0.00 in0.0 mm
02:52 PM 64.2°F17.9°C 53.8°F12.1°C 69% 8.1 mph NW13.0 kmh NW 10.0 mph16.1 kmh 29.92 in1013.2 mb 0.00 in0.0 mm 0.00 in0.0 mm 0.00 in0.0 mm
03:02 PM 64.2°F17.9°C 53.8°F12.1°C 69% 6.4 mph W10.3 kmh W 7.9 mph12.7 kmh 29.92 in1013.2 mb 0.00 in0.0 mm 0.00 in0.0 mm 0.00 in0.0 mm
03:12 PM 64.0°F17.8°C 53.7°F12.1°C 69% 5.2 mph S8.4 kmh S 6.4 mph10.3 kmh 29.92 in1013.2 mb 0.00 in0.0 mm 0.00 in0.0 mm 0.00 in0.0 mm
03:22 PM 63.7°F17.6°C 53.3°F11.8°C 69% 7.4 mph S11.9 kmh S 11.8 mph19.0 kmh 29.89 in1012.2 mb 0.00 in0.0 mm 0.00 in0.0 mm 0.00 in0.0 mm
03:32 PM 63.7°F17.6°C 53.3°F11.8°C 69% 3.2 mph W5.1 kmh W 3.9 mph6.3 kmh 29.89 in1012.2 mb 0.00 in0.0 mm 0.00 in0.0 mm 0.00 in0.0 mm
03:42 PM 63.5°F17.5°C 53.1°F11.7°C 69% 8.4 mph W13.5 kmh W 10.4 mph16.7 kmh 29.89 in1012.2 mb 0.00 in0.0 mm 0.00 in0.0 mm 0.00 in0.0 mm
03:52 PM 63.3°F17.4°C 53.0°F11.7°C 69% 5.5 mph W8.9 kmh W 6.8 mph10.9 kmh 29.89 in1012.2 mb 0.00 in0.0 mm 0.00 in0.0 mm 0.00 in0.0 mm
04:02 PM 62.8°F17.1°C 52.5°F11.4°C 69% 5.5 mph W8.9 kmh W 6.8 mph10.9 kmh 29.92 in1013.2 mb 0.00 in0.0 mm 0.00 in0.0 mm 0.00 in0.0 mm
04:12 PM 62.1°F16.7°C 52.5°F11.4°C 71% 5.2 mph W8.4 kmh W 6.4 mph10.3 kmh 29.92 in1013.2 mb 0.00 in0.0 mm 0.00 in0.0 mm 0.00 in0.0 mm
04:22 PM 61.7°F16.5°C 52.6°F11.4°C 72% 6.4 mph W10.3 kmh W 7.9 mph12.7 kmh 29.92 in1013.2 mb 0.00 in0.0 mm 0.00 in0.0 mm 0.00 in0.0 mm
04:32 PM 61.3°F16.3°C 52.2°F11.2°C 72% 8.1 mph W13.0 kmh W 10.0 mph16.1 kmh 29.92 in1013.2 mb 0.00 in0.0 mm 0.00 in0.0 mm 0.00 in0.0 mm
04:42 PM 61.0°F16.1°C 52.3°F11.3°C 73% 6.4 mph W10.3 kmh W 7.9 mph12.7 kmh 29.92 in1013.2 mb 0.00 in0.0 mm 0.00 in0.0 mm 0.00 in0.0 mm
04:52 PM 60.4°F15.8°C 51.7°F10.9°C 73% 7.9 mph SW12.7 kmh SW 11.5 mph18.5 kmh 29.95 in1014.2 mb 0.00 in0.0 mm 0.00 in0.0 mm 0.00 in0.0 mm
05:00 PM 58.5°F14.7°C 51.6°F10.9°C 78% 8.7 mph SSW14.0 kmh SSW 19.0 mph30.6 kmh 29.86 in1011.2 mb 0.00 in0.0 mm 0.00 in0.0 mm 0.00 in0.0 mm
05:02 PM 59.9°F15.5°C 50.8°F10.4°C 72% 5.5 mph W8.9 kmh W 6.8 mph10.9 kmh 29.92 in1013.2 mb 0.00 in0.0 mm 0.00 in0.0 mm 0.00 in0.0 mm
05:12 PM 59.7°F15.4°C 51.0°F10.6°C 73% 4.7 mph S7.6 kmh S 5.7 mph9.2 kmh 29.92 in1013.2 mb 0.00 in0.0 mm 0.00 in0.0 mm 0.00 in0.0 mm
05:15 PM 57.9°F14.4°C 51.4°F10.8°C 79% 7.7 mph SSW12.4 kmh SSW 19.7 mph31.7 kmh 29.89 in1012.2 mb 0.00 in0.0 mm 0.00 in0.0 mm 0.00 in0.0 mm
05:16 PM 59.4°F15.2°C 50.3°F10.2°C 72% 7.3 mph S11.7 kmh S 8.9 mph14.3 kmh 29.92 in1013.2 mb 0.00 in0.0 mm 0.00 in0.0 mm 0.00 in0.0 mm
05:22 PM 59.5°F15.3°C 50.9°F10.5°C 73% 6.1 mph S9.8 kmh S 7.5 mph12.1 kmh 29.92 in1013.2 mb 0.00 in0.0 mm 0.00 in0.0 mm 0.00 in0.0 mm
05:30 PM 57.9°F14.4°C 51.4°F10.8°C 79% 6.7 mph SSW10.8 kmh SSW 19.0 mph30.6 kmh 29.86 in1011.2 mb 0.00 in0.0 mm 0.00 in0.0 mm 0.00 in0.0 mm
05:45 PM 57.9°F14.4°C 51.4°F10.8°C 79% 8.1 mph SSW13.0 kmh SSW 19.0 mph30.6 kmh 29.86 in1011.2 mb 0.00 in0.0 mm 0.00 in0.0 mm 0.00 in0.0 mm
06:00 PM 57.9°F14.4°C 51.4°F10.8°C 79% 10.2 mph SSW16.4 kmh SSW 21.1 mph34.0 kmh 29.89 in1012.2 mb 0.00 in0.0 mm 0.00 in0.0 mm 0.00 in0.0 mm
06:15 PM 57.9°F14.4°C 51.4°F10.8°C 79% 9.5 mph SSW15.3 kmh SSW 21.1 mph34.0 kmh 29.86 in1011.2 mb 0.00 in0.0 mm 0.00 in0.0 mm 0.00 in0.0 mm
06:30 PM 57.9°F14.4°C 51.8°F11.0°C 80% 10.1 mph WSW16.3 kmh WSW 22.5 mph36.2 kmh 29.86 in1011.2 mb 0.00 in0.0 mm 0.00 in0.0 mm 0.00 in0.0 mm
06:45 PM 57.9°F14.4°C 51.8°F11.0°C 80% 8.7 mph WSW14.0 kmh WSW 22.9 mph36.9 kmh 29.86 in1011.2 mb 0.00 in0.0 mm 0.00 in0.0 mm 0.00 in0.0 mm
07:00 PM 58.1°F14.5°C 52.0°F11.1°C 80% 8.2 mph SW13.2 kmh SW 20.0 mph32.2 kmh 29.86 in1011.2 mb 0.00 in0.0 mm 0.00 in0.0 mm 0.00 in0.0 mm
07:15 PM 58.1°F14.5°C 52.0°F11.1°C 80% 8.5 mph SSW13.7 kmh SSW 20.0 mph32.2 kmh 29.86 in1011.2 mb 0.00 in0.0 mm 0.00 in0.0 mm 0.00 in0.0 mm
07:30 PM 58.3°F14.6°C 52.1°F11.2°C 80% 7.9 mph SSW12.7 kmh SSW 24.7 mph39.8 kmh 29.86 in1011.2 mb 0.00 in0.0 mm 0.00 in0.0 mm 0.00 in0.0 mm
07:45 PM 58.5°F14.7°C 52.0°F11.1°C 79% 8.1 mph SW13.0 kmh SW 18.3 mph29.5 kmh 29.83 in1010.2 mb 0.00 in0.0 mm 0.00 in0.0 mm 0.00 in0.0 mm
08:00 PM 58.5°F14.7°C 52.0°F11.1°C 79% 9.0 mph SSW14.5 kmh SSW 17.9 mph28.8 kmh 29.86 in1011.2 mb 0.00 in0.0 mm 0.00 in0.0 mm 0.00 in0.0 mm
08:15 PM 58.3°F14.6°C 51.8°F11.0°C 79% 10.3 mph SSW16.6 kmh SSW 20.8 mph33.5 kmh 29.86 in1011.2 mb 0.00 in0.0 mm 0.00 in0.0 mm 0.00 in0.0 mm
08:30 PM 57.9°F14.4°C 51.4°F10.8°C 79% 10.7 mph SW17.2 kmh SW 24.7 mph39.8 kmh 29.83 in1010.2 mb 0.00 in0.0 mm 0.00 in0.0 mm 0.00 in0.0 mm
08:45 PM 58.1°F14.5°C 52.0°F11.1°C 80% 7.3 mph SSW11.7 kmh SSW 17.5 mph28.2 kmh 29.86 in1011.2 mb 0.00 in0.0 mm 0.00 in0.0 mm 0.00 in0.0 mm
09:00 PM 57.9°F14.4°C 52.5°F11.4°C 82% 10.0 mph SW16.1 kmh SW 21.1 mph34.0 kmh 29.83 in1010.2 mb 0.00 in0.0 mm 0.00 in0.0 mm 0.00 in0.0 mm
09:15 PM 57.6°F14.2°C 52.1°F11.2°C 82% 6.4 mph SSW10.3 kmh SSW 14.0 mph22.5 kmh 29.86 in1011.2 mb 0.00 in0.0 mm 0.00 in0.0 mm 0.00 in0.0 mm
09:30 PM 57.6°F14.2°C 52.4°F11.3°C 83% 8.8 mph SSW14.2 kmh SSW 16.8 mph27.0 kmh 29.86 in1011.2 mb 0.00 in0.0 mm 0.00 in0.0 mm 0.00 in0.0 mm
09:45 PM 57.7°F14.3°C 52.3°F11.3°C 82% 10.8 mph WSW17.4 kmh WSW 19.7 mph31.7 kmh 29.86 in1011.2 mb 0.00 in0.0 mm 0.00 in0.0 mm 0.00 in0.0 mm
10:00 PM 57.9°F14.4°C 51.8°F11.0°C 80% 10.2 mph W16.4 kmh W 21.1 mph34.0 kmh 29.86 in1011.2 mb 0.00 in0.0 mm 0.00 in0.0 mm 0.00 in0.0 mm
10:15 PM 57.9°F14.4°C 51.4°F10.8°C 79% 7.4 mph WSW11.9 kmh WSW 17.2 mph27.7 kmh 29.86 in1011.2 mb 0.00 in0.0 mm 0.00 in0.0 mm 0.00 in0.0 mm
10:30 PM 58.1°F14.5°C 52.0°F11.1°C 80% 8.1 mph SW13.0 kmh SW 16.8 mph27.0 kmh 29.86 in1011.2 mb 0.00 in0.0 mm 0.00 in0.0 mm 0.00 in0.0 mm
10:45 PM 58.1°F14.5°C 51.6°F10.9°C 79% 7.4 mph SW11.9 kmh SW 16.8 mph27.0 kmh 29.83 in1010.2 mb 0.00 in0.0 mm 0.00 in0.0 mm 0.00 in0.0 mm
11:00 PM 58.1°F14.5°C 51.6°F10.9°C 79% 6.8 mph SSW10.9 kmh SSW 14.0 mph22.5 kmh 29.83 in1010.2 mb 0.00 in0.0 mm 0.00 in0.0 mm 0.00 in0.0 mm
11:15 PM 57.9°F14.4°C 51.8°F11.0°C 80% 6.3 mph SW10.1 kmh SW 16.5 mph26.6 kmh 29.83 in1010.2 mb 0.00 in0.0 mm 0.00 in0.0 mm 0.00 in0.0 mm
11:30 PM 57.4°F14.1°C 51.9°F11.1°C 82% 8.0 mph SW12.9 kmh SW 28.3 mph45.5 kmh 29.83 in1010.2 mb 0.05 in1.3 mm 0.20 in5.1 mm 0.05 in1.3 mm
11:45 PM 56.7°F13.7°C 51.9°F11.1°C 84% 6.9 mph W11.1 kmh W 20.4 mph32.8 kmh 29.83 in1010.2 mb 0.09 in2.3 mm 0.16 in4.1 mm 0.09 in2.3 mm